Time;durP1;ratioP1;P1;durP2;ratioP2;P2;SDS_P1;SDS_P2;PMS_P1;PMS_P2;Temp;Humidity;BMP_temperature;BMP_pressure;BME280_temperature;BME280_humidity;BME280_pressure;Samples;Min_cycle;Max_cycle;Signal;HPM_P1;HPM_P2
2021/04/23 00:01:13;;;;;;;17.48;12.90;;;;;;;6.51;99.97;100572.02;1766070;80;21300;-84
2021/04/23 00:04:18;;;;;;;16.97;13.32;;;;;;;6.47;100.00;100576.02;1767982;80;21259;-84
2021/04/23 00:07:24;;;;;;;17.23;13.83;;;;;;;6.41;100.00;100573.39;1782157;80;21299;-85
2021/04/23 00:10:30;;;;;;;17.82;13.50;;;;;;;6.37;100.00;100567.38;1781801;80;21224;-84
2021/04/23 00:13:35;;;;;;;26.12;14.80;;;;;;;6.36;100.00;100562.09;1776904;79;21169;-84
2021/04/23 00:16:40;;;;;;;21.57;14.63;;;;;;;6.29;100.00;100563.14;1777544;81;21126;-84
2021/04/23 00:19:46;;;;;;;23.52;16.55;;;;;;;6.26;100.00;100565.31;1764297;81;21157;-84
2021/04/23 00:22:52;;;;;;;17.67;13.78;;;;;;;6.23;100.00;100554.22;1764245;81;21351;-85
2021/04/23 00:25:57;;;;;;;20.10;14.53;;;;;;;6.27;100.00;100550.22;1762587;81;21774;-85
2021/04/23 00:29:03;;;;;;;15.95;13.18;;;;;;;6.26;100.00;100551.22;1775891;81;21196;-85
2021/04/23 00:35:38;;;;;;;19.73;14.73;;;;;;;6.24;100.00;100547.77;1777315;81;21146;-84
2021/04/23 00:38:43;;;;;;;20.62;14.28;;;;;;;6.25;100.00;100554.92;1763203;81;21189;-85
2021/04/23 00:41:50;;;;;;;21.95;16.52;;;;;;;6.26;100.00;100555.30;1777551;81;21181;-85
2021/04/23 00:44:56;;;;;;;20.62;15.70;;;;;;;6.24;100.00;100557.28;1759906;81;21264;-85
2021/04/23 00:48:03;;;;;;;19.57;14.10;;;;;;;6.22;100.00;100561.16;1777536;81;21742;-85
2021/04/23 00:51:16;;;;;;;23.47;14.73;;;;;;;6.18;100.00;100560.58;1777630;81;21315;-85
2021/04/23 00:54:21;;;;;;;17.10;12.20;;;;;;;6.13;100.00;100565.58;1777659;80;21272;-84
2021/04/23 00:57:27;;;;;;;16.93;13.32;;;;;;;6.07;100.00;100562.05;1777479;81;21845;-84
2021/04/23 01:00:32;;;;;;;18.32;12.82;;;;;;;5.99;100.00;100565.99;1777372;81;21260;-85
2021/04/23 01:03:38;;;;;;;21.85;14.25;;;;;;;5.90;100.00;100556.30;1777648;81;21640;-85
2021/04/23 01:06:43;;;;;;;17.77;13.55;;;;;;;5.83;100.00;100557.86;1777593;81;21730;-84
2021/04/23 01:09:50;;;;;;;23.22;15.78;;;;;;;5.79;100.00;100552.85;1777679;81;21730;-84
2021/04/23 01:12:58;;;;;;;23.10;16.37;;;;;;;5.75;100.00;100550.91;1775870;80;21299;-85
2021/04/23 01:16:02;;;;;;;25.95;17.85;;;;;;;5.73;100.00;100552.89;1771973;81;21822;-84
2021/04/23 01:19:08;;;;;;;25.17;18.40;;;;;;;5.76;100.00;100555.33;1771863;81;21771;-84
2021/04/23 01:22:13;;;;;;;28.12;18.52;;;;;;;5.81;100.00;100550.34;1771879;81;21212;-84
2021/04/23 01:25:20;;;;;;;29.00;19.70;;;;;;;5.85;100.00;100546.86;1771912;81;21841;-85
2021/04/23 01:28:28;;;;;;;34.73;18.25;;;;;;;5.85;100.00;100546.36;1771782;81;21505;-84
2021/04/23 01:31:38;;;;;;;25.90;18.92;;;;;;;5.85;100.00;100545.00;1771845;81;21288;-85
2021/04/23 01:34:45;;;;;;;25.73;18.67;;;;;;;5.84;100.00;100540.58;1772116;81;21288;-85
2021/04/23 01:37:50;;;;;;;23.25;16.90;;;;;;;5.84;100.00;100541.93;1762720;81;21336;-85
2021/04/23 01:40:55;;;;;;;23.80;16.85;;;;;;;5.85;100.00;100548.21;1771997;81;21268;-85
2021/04/23 01:44:01;;;;;;;23.27;16.57;;;;;;;5.82;100.00;100547.98;1771787;81;21276;-85
2021/04/23 01:47:08;;;;;;;23.60;16.42;;;;;;;5.81;100.00;100545.41;1771807;81;21300;-84
2021/04/23 01:50:17;;;;;;;26.82;18.05;;;;;;;5.79;100.00;100551.00;1771790;81;21292;-82
2021/04/23 01:53:23;;;;;;;23.75;17.15;;;;;;;5.77;100.00;100546.19;1762747;81;21297;-82
2021/04/23 01:56:28;;;;;;;26.02;17.07;;;;;;;5.75;100.00;100543.27;1771909;81;21284;-82
2021/04/23 01:59:33;;;;;;;25.45;16.67;;;;;;;5.73;100.00;100543.39;1771936;81;21261;-82
2021/04/23 02:02:38;;;;;;;24.52;18.15;;;;;;;5.74;100.00;100548.31;1771918;81;21898;-81
2021/04/23 02:05:47;;;;;;;26.80;17.75;;;;;;;5.75;100.00;100548.70;1763644;81;21810;-82
2021/04/23 02:08:52;;;;;;;27.48;17.20;;;;;;;5.75;100.00;100548.20;1771646;81;21304;-82
2021/04/23 02:11:59;;;;;;;23.35;17.07;;;;;;;5.77;100.00;100540.76;1771621;81;21339;-82
2021/04/23 02:15:05;;;;;;;24.25;16.32;;;;;;;5.77;100.00;100543.47;1770925;79;21196;-82
2021/04/23 02:18:12;;;;;;;22.13;16.07;;;;;;;5.76;100.00;100538.20;1742908;81;21193;-82
2021/04/23 02:21:18;;;;;;;22.10;16.32;;;;;;;5.73;100.00;100541.17;1771888;81;21313;-82
2021/04/23 02:24:25;;;;;;;24.20;17.60;;;;;;;5.71;100.00;100545.39;1761276;81;21161;-82
2021/04/23 02:27:32;;;;;;;22.73;16.90;;;;;;;5.68;100.00;100544.30;1771708;81;21280;-81
2021/04/23 02:30:40;;;;;;;24.60;17.85;;;;;;;5.70;100.00;100544.19;1771871;81;21290;-81
2021/04/23 02:33:47;;;;;;;24.87;17.80;;;;;;;5.69;100.00;100541.95;1762902;81;21173;-82
2021/04/23 02:36:51;;;;;;;22.20;16.07;;;;;;;5.63;100.00;100534.37;1771761;81;21853;-82
2021/04/23 02:39:58;;;;;;;24.30;15.68;;;;;;;5.56;100.00;100540.01;1771707;81;21786;-82
2021/04/23 02:43:05;;;;;;;22.48;16.27;;;;;;;5.46;100.00;100533.20;1771795;81;22250;-82
2021/04/23 02:46:11;;;;;;;25.23;15.90;;;;;;;5.39;100.00;100539.66;1771840;81;21185;-82
2021/04/23 02:49:16;;;;;;;24.00;16.67;;;;;;;5.34;100.00;100537.86;1771806;81;21260;-82
2021/04/23 02:52:23;;;;;;;20.32;14.78;;;;;;;5.36;100.00;100545.37;1771617;81;21169;-82
2021/04/23 02:55:28;;;;;;;25.77;16.10;;;;;;;5.39;100.00;100537.45;1763388;81;21264;-82
2021/04/23 02:58:35;;;;;;;19.82;14.45;;;;;;;5.44;100.00;100543.31;1771610;81;21620;-82
2021/04/23 03:01:47;;;;;;;22.35;15.72;;;;;;;5.49;100.00;100542.40;1763373;81;21261;-82
2021/04/23 03:04:52;;;;;;;23.57;16.10;;;;;;;5.54;100.00;100548.27;1761548;81;21213;-82
2021/04/23 03:07:59;;;;;;;19.77;14.70;;;;;;;5.61;100.00;100532.31;1763420;81;21731;-82
2021/04/23 03:11:11;;;;;;;25.10;15.70;;;;;;;5.70;100.00;100540.97;1761505;81;21269;-82
2021/04/23 03:14:18;;;;;;;22.73;16.00;;;;;;;5.81;100.00;100537.27;1771784;81;21256;-81
2021/04/23 03:17:22;;;;;;;24.05;16.27;;;;;;;5.92;100.00;100539.88;1785225;80;21299;-82
2021/04/23 03:20:30;;;;;;;19.57;14.70;;;;;;;6.03;100.00;100537.06;1766528;80;21256;-82
2021/04/23 03:23:35;;;;;;;29.75;14.65;;;;;;;6.15;100.00;100535.05;1785276;80;21379;-82
2021/04/23 03:26:41;;;;;;;21.45;14.45;;;;;;;6.24;100.00;100530.12;1785082;80;21327;-81
2021/04/23 03:29:48;;;;;;;28.67;15.60;;;;;;;6.39;100.00;100531.90;1784972;80;21300;-82
2021/04/23 03:32:52;;;;;;;23.62;14.70;;;;;;;6.52;100.00;100534.33;1784640;80;21315;-82
2021/04/23 03:36:00;;;;;;;26.12;15.10;;;;;;;6.64;100.00;100533.18;1739162;80;21263;-82
2021/04/23 03:39:05;;;;;;;20.52;14.90;;;;;;;6.78;100.00;100527.79;1785072;80;21291;-82
2021/04/23 03:42:11;;;;;;;18.20;14.10;;;;;;;6.94;100.00;100528.52;1785151;80;21208;-82
2021/04/23 03:45:18;;;;;;;17.87;13.03;;;;;;;7.07;100.00;100529.91;1785150;80;21185;-82
2021/04/23 03:48:25;;;;;;;20.68;13.40;;;;;;;7.23;100.00;100533.35;1785160;80;21300;-82
2021/04/23 03:51:29;;;;;;;21.00;14.23;;;;;;;7.41;100.00;100534.28;1784878;80;21869;-82
2021/04/23 03:54:35;;;;;;;19.70;13.80;;;;;;;7.56;100.00;100529.69;1785004;80;21341;-82
2021/04/23 03:57:39;;;;;;;21.87;14.78;;;;;;;7.73;100.00;100528.03;1785297;80;21216;-82
2021/04/23 04:00:51;;;;;;;17.82;14.03;;;;;;;7.87;100.00;100529.72;1784638;80;21157;-83
2021/04/23 04:03:57;;;;;;;15.13;11.18;;;;;;;8.05;100.00;100539.28;1783937;80;21168;-82
2021/04/23 04:07:04;;;;;;;17.27;13.35;;;;;;;8.25;100.00;100531.81;1784910;80;21187;-83
2021/04/23 04:10:09;;;;;;;19.98;14.07;;;;;;;8.44;100.00;100539.85;1785210;80;21153;-83
2021/04/23 04:13:15;;;;;;;22.42;14.80;;;;;;;8.63;99.89;100537.97;1785254;80;21822;-83
2021/04/23 04:16:20;;;;;;;19.50;12.93;;;;;;;8.83;99.16;100537.25;1782686;79;21194;-83
2021/04/23 04:19:29;;;;;;;18.27;13.38;;;;;;;9.08;98.33;100545.09;1777683;80;21264;-83
2021/04/23 04:22:35;;;;;;;22.25;13.75;;;;;;;9.26;96.99;100545.87;1777273;81;21319;-83
2021/04/23 04:25:44;;;;;;;18.70;12.95;;;;;;;9.46;95.91;100543.28;1776896;80;21286;-83
2021/04/23 04:28:49;;;;;;;20.48;14.20;;;;;;;9.66;94.64;100543.02;1785817;79;21841;-83
2021/04/23 04:31:55;;;;;;;17.45;12.98;;;;;;;9.86;93.61;100546.32;1793260;79;21244;-83
2021/04/23 04:35:00;;;;;;;21.45;11.93;;;;;;;10.07;92.68;100539.02;1793385;79;21252;-83
2021/04/23 04:38:07;;;;;;;17.48;11.65;;;;;;;10.29;91.68;100541.15;1795036;79;21178;-83
2021/04/23 04:41:12;;;;;;;18.35;11.00;;;;;;;10.47;90.14;100544.59;1794201;79;21593;-81
2021/04/23 04:44:20;;;;;;;16.40;11.12;;;;;;;10.65;89.21;100550.42;1791598;79;21387;-80
2021/04/23 04:47:25;;;;;;;21.20;11.30;;;;;;;10.83;87.97;100545.63;1792619;79;21762;-81
2021/04/23 04:50:38;;;;;;;17.48;10.18;;;;;;;10.98;86.93;100545.26;1792585;79;21275;-80
2021/04/23 04:53:44;;;;;;;15.08;9.88;;;;;;;11.19;85.82;100543.32;1804871;79;21707;-81
2021/04/23 04:56:50;;;;;;;13.55;9.85;;;;;;;11.35;84.65;100553.41;1809219;79;21157;-80
2021/04/23 04:59:55;;;;;;;14.55;10.10;;;;;;;11.46;83.29;100553.02;1777161;79;21877;-81
2021/04/23 05:03:01;;;;;;;11.68;9.63;;;;;;;11.49;82.63;100551.30;1794508;78;21260;-80
2021/04/23 05:06:08;;;;;;;10.38;8.05;;;;;;;11.57;82.42;100549.55;1809240;78;21192;-81
2021/04/23 05:09:15;;;;;;;11.93;8.25;;;;;;;11.71;82.13;100541.95;1789149;78;21290;-81
2021/04/23 05:12:25;;;;;;;15.75;8.85;;;;;;;11.84;81.44;100548.27;1792330;78;21288;-81
2021/04/23 05:15:30;;;;;;;14.50;8.20;;;;;;;11.87;80.19;100543.30;1736293;81;21197;-84
2021/04/23 05:18:36;;;;;;;11.25;8.08;;;;;;;11.97;79.98;100537.06;1755130;80;21862;-81
2021/04/23 05:21:42;;;;;;;14.03;8.10;;;;;;;12.09;79.35;100532.53;1722852;81;21283;-82
2021/04/23 05:24:51;;;;;;;11.88;7.80;;;;;;;12.24;79.33;100534.86;1717950;81;21333;-81
2021/04/23 05:27:57;;;;;;;9.30;8.23;;;;;;;12.46;78.67;100522.16;1762739;81;21336;-82
2021/04/23 05:31:03;;;;;;;7.60;6.47;;;;;;;12.63;77.84;100535.25;1734868;81;21304;-81
2021/04/23 05:34:09;;;;;;;8.78;5.33;;;;;;;12.78;76.97;100534.24;1742054;81;21276;-82
2021/04/23 05:37:16;;;;;;;8.50;6.25;;;;;;;12.96;76.14;100525.67;1740480;80;21304;-81
2021/04/23 05:40:26;;;;;;;15.95;6.92;;;;;;;13.14;76.00;100514.86;1743939;80;21296;-82
2021/04/23 05:43:32;;;;;;;6.75;6.03;;;;;;;13.29;74.66;100505.61;1740768;80;21312;-82
2021/04/23 05:46:40;;;;;;;7.08;6.37;;;;;;;13.42;73.71;100508.23;1741788;81;21307;-82
2021/04/23 05:49:45;;;;;;;8.08;5.78;;;;;;;13.44;71.93;100500.64;1743745;80;21256;-82
2021/04/23 05:52:51;;;;;;;8.78;5.12;;;;;;;13.33;71.69;100503.34;1744268;81;21213;-82
2021/04/23 05:56:00;;;;;;;8.60;6.10;;;;;;;13.27;71.95;100506.34;1745765;81;21284;-82
2021/04/23 05:59:05;;;;;;;6.90;5.80;;;;;;;13.24;71.69;100501.20;1746245;81;21272;-83
2021/04/23 06:02:12;;;;;;;10.58;6.40;;;;;;;13.26;71.75;100504.61;1727367;80;21355;-82
2021/04/23 06:05:21;;;;;;;6.95;5.78;;;;;;;13.41;72.88;100505.13;1747053;80;21851;-82
2021/04/23 06:08:29;;;;;;;7.47;5.45;;;;;;;13.61;73.19;100506.80;1748014;80;21299;-82
2021/04/23 06:11:36;;;;;;;8.85;6.10;;;;;;;13.79;72.52;100504.50;1742532;80;21259;-83
2021/04/23 06:14:41;;;;;;;11.63;7.10;;;;;;;13.92;71.41;100506.53;1744431;80;21264;-82
2021/04/23 06:17:47;;;;;;;10.63;5.95;;;;;;;13.95;69.96;100500.66;1740579;80;21276;-83
2021/04/23 06:20:54;;;;;;;5.90;5.30;;;;;;;13.96;68.89;100500.45;1784442;79;21707;-83
2021/04/23 06:24:01;;;;;;;6.97;5.70;;;;;;;14.03;69.09;100501.39;1785835;78;21944;-83
2021/04/23 06:27:08;;;;;;;8.15;5.55;;;;;;;14.24;69.47;100504.67;1782114;78;21289;-84
2021/04/23 06:30:18;;;;;;;12.82;6.20;;;;;;;14.54;70.24;100495.82;1778826;78;21284;-83
2021/04/23 06:33:30;;;;;;;9.70;5.83;;;;;;;14.77;68.80;100494.72;1790665;78;21212;-83
2021/04/23 06:36:40;;;;;;;10.28;6.37;;;;;;;14.88;67.55;100501.61;1786612;78;21154;-82
2021/04/23 06:39:46;;;;;;;8.60;6.53;;;;;;;14.89;66.96;100497.27;1785168;78;21339;-83
2021/04/23 06:42:51;;;;;;;11.05;6.92;;;;;;;14.86;65.82;100499.03;1787971;79;21165;-83
2021/04/23 06:45:56;;;;;;;12.60;6.87;;;;;;;14.79;66.06;100498.99;1787562;78;21145;-84
2021/04/23 06:49:04;;;;;;;10.78;5.97;;;;;;;14.84;66.48;100495.64;1777026;78;21512;-83
2021/04/23 06:52:13;;;;;;;6.90;5.15;;;;;;;14.97;66.08;100490.77;1782060;78;21161;-83
2021/04/23 06:55:20;;;;;;;6.42;4.10;;;;;;;15.09;65.03;100494.13;1770287;79;21291;-83
2021/04/23 06:58:26;;;;;;;7.37;4.33;;;;;;;15.12;64.05;100496.16;1785289;79;21331;-83
2021/04/23 07:01:33;;;;;;;8.48;5.17;;;;;;;15.13;63.45;100490.97;1785399;79;21260;-83
2021/04/23 07:04:40;;;;;;;7.37;5.50;;;;;;;15.22;64.29;100488.38;1787525;79;21261;-83
2021/04/23 07:07:48;;;;;;;7.85;4.87;;;;;;;15.32;63.40;100488.87;1788031;78;21248;-83
2021/04/23 07:10:54;;;;;;;5.62;4.95;;;;;;;15.43;64.03;100482.80;1792363;78;21303;-82
2021/04/23 07:14:02;;;;;;;5.30;4.10;;;;;;;15.52;62.84;100487.06;1784218;79;21275;-81
2021/04/23 07:17:11;;;;;;;4.85;4.35;;;;;;;15.57;61.27;100487.33;1781467;79;21268;-82
2021/04/23 07:20:17;;;;;;;8.20;5.60;;;;;;;15.64;62.32;100472.74;1782682;79;21304;-82
2021/04/23 07:23:26;;;;;;;23.67;4.90;;;;;;;15.73;61.28;100470.13;1784759;79;21264;-83
2021/04/23 07:26:34;;;;;;;7.67;4.78;;;;;;;15.82;61.50;100468.89;1779917;79;21288;-84
2021/04/23 07:29:43;;;;;;;10.13;5.10;;;;;;;15.90;60.97;100471.45;1784856;78;21256;-83
2021/04/23 07:32:52;;;;;;;7.47;4.57;;;;;;;15.97;59.67;100462.67;1783293;78;21249;-83
2021/04/23 07:35:58;;;;;;;8.40;5.22;;;;;;;16.03;59.00;100469.27;1789566;78;21527;-83
2021/04/23 07:39:04;;;;;;;8.18;4.70;;;;;;;16.05;59.22;100462.49;1716107;81;22010;-83
2021/04/23 07:42:11;;;;;;;10.32;4.78;;;;;;;16.12;58.45;100464.41;1783272;79;21312;-81
2021/04/23 07:45:19;;;;;;;5.60;4.45;;;;;;;16.17;57.55;100463.25;1785351;79;21197;-80
2021/04/23 07:48:25;;;;;;;6.87;4.28;;;;;;;16.21;58.22;100469.52;1783880;79;21264;-83
2021/04/23 07:51:31;;;;;;;4.80;4.15;;;;;;;16.28;58.55;100462.66;1777801;79;21240;-83
2021/04/23 07:54:40;;;;;;;4.40;3.95;;;;;;;16.32;56.50;100461.99;1784803;78;21864;-82
2021/04/23 07:57:47;;;;;;;5.72;4.50;;;;;;;16.28;56.62;100454.37;1788072;78;21324;-82
2021/04/23 08:00:54;;;;;;;6.25;4.60;;;;;;;16.30;57.94;100451.70;1723041;82;21283;-82
2021/04/23 08:04:02;;;;;;;4.97;3.85;;;;;;;16.39;57.95;100456.50;1784047;79;21268;-83
2021/04/23 08:07:10;;;;;;;5.17;4.30;;;;;;;16.47;57.64;100457.69;1781203;79;21325;-84
2021/04/23 08:10:18;;;;;;;9.03;4.50;;;;;;;16.55;58.62;100456.07;1784584;79;21846;-85
2021/04/23 08:13:27;;;;;;;5.58;4.10;;;;;;;16.60;57.32;100449.91;1780269;79;21338;-84
2021/04/23 08:16:36;;;;;;;6.05;4.33;;;;;;;16.58;56.43;100441.85;1770829;79;21264;-85
2021/04/23 08:19:43;;;;;;;5.30;4.70;;;;;;;16.52;56.80;100445.47;1786657;78;21142;-85
2021/04/23 08:22:51;;;;;;;11.08;4.42;;;;;;;16.60;57.88;100437.48;1738879;81;21175;-84
2021/04/23 08:26:02;;;;;;;6.85;4.25;;;;;;;16.69;56.79;100436.75;1765087;79;21305;-85
2021/04/23 08:29:11;;;;;;;7.10;4.53;;;;;;;16.69;57.07;100435.37;1765155;80;21729;-85
2021/04/23 08:32:17;;;;;;;6.62;4.28;;;;;;;16.71;57.16;100438.78;1755314;80;21188;-86
2021/04/23 08:35:24;;;;;;;12.00;4.42;;;;;;;16.66;55.63;100433.05;1773872;80;21804;-85
2021/04/23 08:38:31;;;;;;;8.35;4.08;;;;;;;16.57;55.10;100429.65;1772062;80;21132;-85
2021/04/23 08:41:39;;;;;;;9.40;4.05;;;;;;;16.51;55.74;100421.66;1763698;80;21278;-85
2021/04/23 08:44:46;;;;;;;7.15;3.90;;;;;;;16.56;56.70;100423.28;1774820;80;21149;-84
2021/04/23 08:47:53;;;;;;;5.95;4.28;;;;;;;16.64;55.12;100422.73;1753726;81;21273;-85
2021/04/23 08:51:00;;;;;;;10.88;4.33;;;;;;;16.66;56.99;100423.38;1771337;79;21584;-85
2021/04/23 08:54:07;;;;;;;10.00;4.80;;;;;;;16.75;57.83;100417.96;1769678;79;21294;-85
2021/04/23 08:57:15;;;;;;;9.23;4.58;;;;;;;16.86;56.33;100421.47;1766186;79;21286;-84
2021/04/23 09:00:25;;;;;;;10.10;4.03;;;;;;;16.95;54.96;100416.58;1769162;80;21129;-84
2021/04/23 09:03:32;;;;;;;4.53;3.60;;;;;;;17.00;55.92;100413.48;1736972;81;21757;-84
2021/04/23 09:06:38;;;;;;;9.33;4.08;;;;;;;17.04;55.34;100414.75;1766088;80;21580;-84
2021/04/23 09:09:47;;;;;;;6.78;4.00;;;;;;;17.01;54.87;100401.35;1760379;80;21314;-85
2021/04/23 09:12:53;;;;;;;12.03;4.47;;;;;;;17.04;55.22;100418.05;1769878;80;21768;-84
2021/04/23 09:16:03;;;;;;;15.10;4.62;;;;;;;17.03;56.92;100404.77;1737653;80;21149;-85
2021/04/23 09:19:23;;;;;;;11.50;3.83;;;;;;;17.09;55.34;100408.57;1768691;79;21290;-84
2021/04/23 09:22:32;;;;;;;9.03;4.50;;;;;;;17.20;56.00;100404.28;1779462;78;21320;-85
2021/04/23 09:25:52;;;;;;;10.23;3.85;;;;;;;17.32;55.30;100403.39;1789728;78;21575;-85
2021/04/23 09:28:58;;;;;;;10.40;4.08;;;;;;;17.41;55.38;100392.95;1781118;79;21797;-85
2021/04/23 09:32:05;;;;;;;7.30;3.92;;;;;;;17.44;54.05;100393.88;1777452;79;21196;-85
2021/04/23 09:35:26;;;;;;;15.20;3.75;;;;;;;17.42;52.76;100386.34;1778889;79;21778;-84
2021/04/23 09:38:32;;;;;;;9.43;4.42;;;;;;;17.33;53.53;100387.66;1771024;78;21263;-83
2021/04/23 09:41:41;;;;;;;4.65;3.60;;;;;;;17.31;54.09;100383.73;1779255;79;21797;-83
2021/04/23 09:44:58;;;;;;;6.47;3.95;;;;;;;17.33;54.78;100389.04;1782139;79;21268;-83
2021/04/23 09:48:05;;;;;;;8.18;3.92;;;;;;;17.39;54.92;100374.33;1767773;79;21299;-83
2021/04/23 09:51:25;;;;;;;10.53;3.95;;;;;;;17.39;54.46;100368.80;1775760;79;21960;-82
2021/04/23 09:54:35;;;;;;;4.47;3.67;;;;;;;17.40;54.95;100376.55;1782204;79;21372;-85
2021/04/23 09:57:42;;;;;;;5.20;3.65;;;;;;;17.48;53.82;100370.78;1783057;79;21279;-85
2021/04/23 10:00:49;;;;;;;8.30;3.87;;;;;;;17.46;54.00;100370.17;1782245;79;21281;-85
2021/04/23 10:03:56;;;;;;;7.95;4.12;;;;;;;17.48;54.96;100366.64;1780777;79;21853;-85
2021/04/23 10:07:28;;;;;;;4.42;3.77;;;;;;;17.56;54.51;100363.09;1781122;79;21265;-85
2021/04/23 10:10:34;;;;;;;5.90;3.42;;;;;;;17.63;54.29;100366.65;1776009;79;21307;-84
2021/04/23 10:13:41;;;;;;;5.17;3.62;;;;;;;17.66;53.42;100363.14;1781175;78;21274;-85
2021/04/23 10:16:47;;;;;;;6.08;4.08;;;;;;;17.65;54.57;100353.16;1780439;78;21251;-85
2021/04/23 10:19:55;;;;;;;5.92;3.50;;;;;;;17.64;53.54;100355.05;1783506;79;21323;-85
2021/04/23 10:23:00;;;;;;;4.25;3.70;;;;;;;17.67;54.66;100347.70;1769193;79;21302;-85
2021/04/23 10:26:07;;;;;;;4.85;3.20;;;;;;;17.78;52.83;100351.16;1776669;78;21248;-85
2021/04/23 10:29:13;;;;;;;8.85;3.10;;;;;;;17.78;51.33;100344.78;1779558;79;21826;-85
2021/04/23 10:32:20;;;;;;;5.10;3.45;;;;;;;17.64;52.10;100343.98;1790159;79;21157;-85
2021/04/23 10:35:26;;;;;;;5.60;4.17;;;;;;;17.66;54.05;100337.72;1777319;79;21823;-85
2021/04/23 10:38:41;;;;;;;5.37;3.67;;;;;;;17.70;52.57;100332.59;1780072;78;21802;-85
2021/04/23 10:41:47;;;;;;;6.87;4.58;;;;;;;17.63;51.48;100321.55;1782557;79;21945;-85
2021/04/23 10:45:03;;;;;;;4.75;3.20;;;;;;;17.55;52.66;100322.68;1780056;79;21122;-85
2021/04/23 10:48:10;;;;;;;7.45;2.90;;;;;;;17.57;52.63;100320.53;1785458;78;21259;-85
2021/04/23 10:51:19;;;;;;;4.17;3.17;;;;;;;17.67;52.54;100312.28;1776673;78;21798;-84
2021/04/23 10:54:24;;;;;;;6.83;3.02;;;;;;;17.84;53.46;100319.02;1771869;79;21240;-85
2021/04/23 10:57:30;;;;;;;4.50;3.20;;;;;;;17.96;51.22;100307.52;1784270;78;21129;-85
2021/04/23 11:00:42;;;;;;;4.60;3.75;;;;;;;17.97;50.88;100299.52;1768124;79;21232;-85
2021/04/23 11:03:49;;;;;;;5.87;3.35;;;;;;;17.92;51.37;100297.97;1779725;78;21468;-85
2021/04/23 11:07:09;;;;;;;6.65;3.25;;;;;;;17.88;50.40;100292.06;1785736;78;21307;-85
2021/04/23 11:10:16;;;;;;;4.62;3.02;;;;;;;17.83;50.20;100299.31;1777979;78;21256;-85
2021/04/23 11:13:40;;;;;;;5.67;2.98;;;;;;;17.81;49.55;100286.25;1783561;79;21312;-85
2021/04/23 11:16:47;;;;;;;6.00;3.25;;;;;;;17.78;48.72;100288.08;1780612;78;21913;-85
2021/04/23 11:19:54;;;;;;;5.05;3.45;;;;;;;17.78;48.66;100278.39;1781606;78;21279;-85
2021/04/23 11:23:04;;;;;;;4.28;3.17;;;;;;;17.85;49.33;100283.35;1776864;79;21854;-85
2021/04/23 11:26:10;;;;;;;4.47;3.40;;;;;;;17.88;49.21;100276.84;1787299;79;21117;-85
2021/04/23 11:29:21;;;;;;;10.23;3.90;;;;;;;17.82;49.98;100273.56;1787664;79;21240;-85
2021/04/23 11:32:33;;;;;;;4.67;3.58;;;;;;;17.72;49.95;100275.12;1785624;79;21267;-85
2021/04/23 11:35:40;;;;;;;4.50;2.98;;;;;;;17.73;51.43;100268.50;1789880;78;21170;-84
2021/04/23 11:39:08;;;;;;;7.37;3.40;;;;;;;17.82;51.03;100260.28;1787301;79;21195;-85
2021/04/23 11:42:30;;;;;;;7.05;3.40;;;;;;;17.88;50.91;100256.63;1768121;79;21278;-85
2021/04/23 11:45:43;;;;;;;4.62;3.17;;;;;;;17.90;49.03;100258.63;1786634;79;21192;-85
2021/04/23 11:48:58;;;;;;;4.33;2.70;;;;;;;17.87;49.25;100254.91;1785907;79;21129;-85
2021/04/23 11:52:09;;;;;;;4.70;3.27;;;;;;;17.82;49.15;100265.81;1794145;79;21264;-84
2021/04/23 11:55:20;;;;;;;6.75;3.80;;;;;;;17.69;49.60;100246.51;1786489;78;21683;-83
2021/04/23 11:58:26;;;;;;;9.48;3.90;;;;;;;17.55;48.94;100237.46;1790533;79;21256;-83
2021/04/23 12:01:32;;;;;;;5.97;3.55;;;;;;;17.48;50.38;100250.50;1790462;79;21852;-83
2021/04/23 12:04:47;;;;;;;7.50;3.10;;;;;;;17.53;51.04;100253.44;1786727;79;21805;-83
2021/04/23 12:07:54;;;;;;;4.70;3.60;;;;;;;17.52;50.19;100228.25;1789214;79;21295;-83
2021/04/23 12:11:05;;;;;;;6.22;3.72;;;;;;;17.51;49.92;100241.77;1788816;79;21358;-83
2021/04/23 12:14:12;;;;;;;4.55;3.33;;;;;;;17.47;48.64;100235.83;1790816;79;21813;-83
2021/04/23 12:17:18;;;;;;;10.23;3.90;;;;;;;17.37;49.65;100234.09;1746516;81;21801;-82
2021/04/23 12:20:29;;;;;;;3.85;3.08;;;;;;;17.36;49.73;100233.77;1726844;82;21170;-83
2021/04/23 12:23:39;;;;;;;5.40;3.30;;;;;;;17.36;50.46;100229.11;1723752;81;21249;-82
2021/04/23 12:26:46;;;;;;;5.95;3.25;;;;;;;17.41;49.74;100228.44;1732791;81;21713;-83
2021/04/23 12:29:54;;;;;;;5.08;3.10;;;;;;;17.39;49.89;100231.95;1702728;81;21280;-82
2021/04/23 12:33:04;;;;;;;4.60;3.45;;;;;;;17.37;49.07;100222.50;1729705;81;21285;-82
2021/04/23 12:36:34;;;;;;;4.67;3.25;;;;;;;17.31;48.65;100226.67;1735468;81;21159;-82
2021/04/23 12:39:40;;;;;;;4.55;3.15;;;;;;;17.22;48.21;100223.86;1723349;81;21245;-82
2021/04/23 12:42:45;;;;;;;4.17;2.80;;;;;;;17.16;48.38;100222.84;1733938;82;21255;-82
2021/04/23 12:45:58;;;;;;;6.30;2.62;;;;;;;17.09;47.43;100217.89;1731576;81;21193;-82
2021/04/23 12:49:10;;;;;;;3.58;3.22;;;;;;;17.05;48.52;100207.81;1729606;81;21952;-83
2021/04/23 12:52:29;;;;;;;10.10;3.00;;;;;;;17.06;48.70;100206.73;1733225;81;21310;-83
2021/04/23 12:55:35;;;;;;;3.72;2.98;;;;;;;17.06;48.12;100209.50;1738159;81;21146;-82
2021/04/23 12:58:43;;;;;;;4.08;2.98;;;;;;;17.02;47.15;100206.86;1730454;82;21263;-82
2021/04/23 13:01:56;;;;;;;5.08;3.12;;;;;;;16.94;48.85;100211.28;1718889;82;21793;-82
2021/04/23 13:05:22;;;;;;;3.75;3.10;;;;;;;16.90;47.95;100208.64;1751316;81;21271;-83
2021/04/23 13:08:28;;;;;;;3.62;3.12;;;;;;;16.82;47.99;100201.98;1738414;81;21272;-82
2021/04/23 13:11:35;;;;;;;6.37;3.87;;;;;;;16.74;46.81;100195.32;1738295;82;21144;-82
2021/04/23 13:14:45;;;;;;;4.70;3.72;;;;;;;16.66;45.15;100192.80;1734999;81;21265;-83
2021/04/23 13:17:53;;;;;;;4.62;3.08;;;;;;;16.59;44.79;100193.65;1736669;81;21288;-83
2021/04/23 13:21:09;;;;;;;3.75;2.72;;;;;;;16.56;43.56;100194.61;1734687;82;21265;-82
2021/04/23 13:24:20;;;;;;;5.30;3.20;;;;;;;16.51;44.05;100188.36;1750698;81;21338;-82
2021/04/23 13:27:36;;;;;;;4.50;2.80;;;;;;;16.42;44.04;100196.59;1750316;81;21339;-82
2021/04/23 13:30:44;;;;;;;3.67;2.90;;;;;;;16.27;44.17;100191.31;1727307;82;21298;-82
2021/04/23 13:33:50;;;;;;;3.47;2.40;;;;;;;16.16;45.92;100200.27;1750881;81;21728;-82
2021/04/23 13:36:58;;;;;;;4.42;3.10;;;;;;;16.07;46.99;100193.27;1727941;82;21296;-82
2021/04/23 13:40:15;;;;;;;3.33;3.02;;;;;;;15.91;47.36;100197.88;1715491;83;21163;-82
2021/04/23 13:43:24;;;;;;;5.83;3.70;;;;;;;15.75;48.24;100191.71;1714996;83;21223;-82
2021/04/23 13:46:43;;;;;;;6.25;3.42;;;;;;;15.57;49.49;100189.59;1729155;83;21330;-83
2021/04/23 13:49:51;;;;;;;5.42;3.27;;;;;;;15.39;49.49;100185.23;1729749;83;21825;-82
2021/04/23 13:52:56;;;;;;;4.00;3.00;;;;;;;15.24;49.89;100177.66;1730355;83;21746;-82
2021/04/23 13:56:20;;;;;;;5.58;3.55;;;;;;;15.14;49.94;100178.61;1728999;83;21180;-82
2021/04/23 13:59:37;;;;;;;5.58;3.33;;;;;;;15.07;51.67;100172.56;1713479;83;21275;-82
2021/04/23 14:02:43;;;;;;;4.83;3.72;;;;;;;15.04;52.25;100178.48;1730692;83;21314;-82
2021/04/23 14:05:48;;;;;;;3.90;3.12;;;;;;;15.04;53.45;100168.84;1730452;83;21899;-82
2021/04/23 14:08:54;;;;;;;6.97;3.90;;;;;;;15.01;53.17;100168.44;1730730;83;21287;-82
2021/04/23 14:12:02;;;;;;;5.95;3.33;;;;;;;14.98;53.62;100163.33;1729674;83;21729;-82
2021/04/23 14:15:09;;;;;;;4.62;3.67;;;;;;;14.97;53.55;100163.02;1712344;83;21200;-82
2021/04/23 14:18:14;;;;;;;6.28;3.55;;;;;;;14.96;53.50;100157.16;1731403;83;21889;-82
2021/04/23 14:21:21;;;;;;;8.68;4.03;;;;;;;14.93;53.80;100162.58;1747724;82;21240;-82
2021/04/23 14:24:26;;;;;;;5.53;3.67;;;;;;;14.90;53.64;100160.23;1747261;82;21308;-82
2021/04/23 14:27:32;;;;;;;5.08;3.50;;;;;;;14.88;53.50;100160.98;1740039;82;21287;-82
2021/04/23 14:30:38;;;;;;;9.13;3.77;;;;;;;14.91;53.96;100155.56;1771494;81;21146;-82